createdAt,value
2023-04-18T00:02:18.375Z,6.80
2023-04-18T00:04:48.660Z,6.80
2023-04-18T00:07:17.665Z,6.80
2023-04-18T00:09:45.943Z,6.70
2023-04-18T00:12:39.130Z,6.70
2023-04-18T00:15:12.759Z,6.70
2023-04-18T00:17:41.006Z,6.70
2023-04-18T00:20:12.602Z,6.70
2023-04-18T00:22:42.650Z,6.70
2023-04-18T00:25:11.796Z,6.60
2023-04-18T00:27:40.209Z,6.60
2023-04-18T00:30:09.622Z,6.50
2023-04-18T00:32:37.724Z,6.50
2023-04-18T00:35:06.903Z,6.50
2023-04-18T00:37:37.408Z,6.50
2023-04-18T00:40:06.205Z,6.50
2023-04-18T00:42:34.550Z,6.50
2023-04-18T00:45:02.689Z,6.50
2023-04-18T00:47:30.713Z,6.60
2023-04-18T00:50:00.205Z,6.60
2023-04-18T00:52:29.165Z,6.60
2023-04-18T00:54:58.635Z,6.60
2023-04-18T00:57:26.774Z,6.60
2023-04-18T00:59:54.873Z,6.60
2023-04-18T01:02:23.621Z,6.60
2023-04-18T01:04:52.183Z,6.60
2023-04-18T01:07:20.242Z,6.60
2023-04-18T01:09:48.684Z,6.60
2023-04-18T01:12:18.029Z,6.60
2023-04-18T01:14:46.175Z,6.60
2023-04-18T01:17:14.161Z,6.60
2023-04-18T01:19:42.240Z,6.50
2023-04-18T01:22:11.416Z,6.60
2023-04-18T01:24:41.037Z,6.50
2023-04-18T01:27:12.641Z,6.50
2023-04-18T01:29:41.492Z,6.50
2023-04-18T01:32:09.491Z,6.50
2023-04-18T01:34:37.601Z,6.50
2023-04-18T01:37:05.568Z,6.50
2023-04-18T01:39:34.065Z,6.50
2023-04-18T01:42:04.979Z,6.60
2023-04-18T01:44:32.952Z,6.60
2023-04-18T01:47:00.933Z,6.50
2023-04-18T01:49:28.911Z,6.50
2023-04-18T01:51:57.472Z,6.60
2023-04-18T01:54:25.450Z,6.50
2023-04-18T01:56:53.410Z,6.50
2023-04-18T01:59:22.777Z,6.50
2023-04-18T02:01:50.824Z,6.50
2023-04-18T02:04:19.407Z,6.50
2023-04-18T02:06:47.364Z,6.50
2023-04-18T02:09:15.350Z,6.50
2023-04-18T02:11:43.413Z,6.50
2023-04-18T02:14:11.734Z,6.50
2023-04-18T02:16:41.837Z,6.50
2023-04-18T02:19:09.827Z,6.50
2023-04-18T02:21:37.791Z,6.50
2023-04-18T02:24:06.048Z,6.50
2023-04-18T02:26:33.999Z,6.40
2023-04-18T02:29:05.120Z,6.40
2023-04-18T02:31:33.226Z,6.40
2023-04-18T02:34:02.556Z,6.40
2023-04-18T02:36:31.002Z,6.40
2023-04-18T02:38:58.997Z,6.40
2023-04-18T02:41:27.175Z,6.40
2023-04-18T02:43:55.858Z,6.40
2023-04-18T02:46:23.880Z,6.40
2023-04-18T02:48:51.851Z,6.30
2023-04-18T02:51:21.195Z,6.30
2023-04-18T02:53:49.848Z,6.20
2023-04-18T02:56:18.090Z,6.20
2023-04-18T02:58:46.073Z,6.10
2023-04-18T03:01:14.100Z,6.00
2023-04-18T03:03:42.090Z,6.00
2023-04-18T03:06:10.232Z,6.10
2023-04-18T03:08:39.557Z,6.10
2023-04-18T03:11:07.632Z,6.00
2023-04-18T03:13:36.248Z,6.00
2023-04-18T03:16:04.431Z,6.00
2023-04-18T03:18:32.800Z,6.00
2023-04-18T03:21:00.795Z,6.00
2023-04-18T03:23:28.730Z,6.00
2023-04-18T03:25:58.224Z,5.90
2023-04-18T03:28:26.175Z,5.90
2023-04-18T03:30:54.980Z,6.00
2023-04-18T03:33:23.992Z,6.00
2023-04-18T03:35:52.292Z,5.90
2023-04-18T03:38:20.309Z,6.00
2023-04-18T03:40:48.925Z,5.90
2023-04-18T03:43:18.574Z,5.90
2023-04-18T03:45:47.295Z,5.90
2023-04-18T03:48:15.618Z,5.90
2023-04-18T03:50:43.584Z,5.80
2023-04-18T03:53:11.570Z,5.80
2023-04-18T03:55:40.292Z,5.80
2023-04-18T03:58:08.269Z,5.70
2023-04-18T04:00:37.687Z,5.70
2023-04-18T04:03:06.898Z,5.70
2023-04-18T04:05:35.178Z,5.70
2023-04-18T04:08:03.290Z,5.70
2023-04-18T04:10:31.300Z,5.70
2023-04-18T04:12:59.360Z,5.80
2023-04-18T04:15:27.347Z,5.70
2023-04-18T04:17:56.717Z,5.80
2023-04-18T04:20:26.001Z,5.70
2023-04-18T04:22:54.048Z,5.70
2023-04-18T04:25:23.832Z,5.80
2023-04-18T04:27:53.595Z,5.70
2023-04-18T04:30:22.232Z,5.70
2023-04-18T04:32:51.255Z,5.70
2023-04-18T04:35:20.739Z,5.70
2023-04-18T04:37:49.197Z,5.80
2023-04-18T04:40:17.535Z,5.80
2023-04-18T04:42:45.923Z,5.80
2023-04-18T04:45:14.637Z,5.90
2023-04-18T04:47:42.533Z,5.90
2023-04-18T04:50:14.759Z,5.90
2023-04-18T04:52:44.501Z,5.90
2023-04-18T04:55:12.501Z,5.90
2023-04-18T04:57:40.819Z,6.00
2023-04-18T05:00:10.046Z,6.00
2023-04-18T05:02:38.480Z,6.00
2023-04-18T05:05:07.079Z,6.00
2023-04-18T05:07:35.126Z,6.10
2023-04-18T05:10:05.623Z,6.10
2023-04-18T05:12:33.705Z,6.30
2023-04-18T05:15:01.774Z,6.30
2023-04-18T05:17:29.839Z,6.40
2023-04-18T05:19:57.981Z,6.50
2023-04-18T05:22:26.877Z,6.60
2023-04-18T05:24:54.862Z,6.70
2023-04-18T05:27:24.266Z,6.80
2023-04-18T05:29:52.738Z,6.90
2023-04-18T05:32:21.216Z,6.90
2023-04-18T05:34:49.998Z,6.90
2023-04-18T05:37:18.187Z,7.00
2023-04-18T05:39:46.245Z,7.10
2023-04-18T05:42:14.873Z,7.20
2023-04-18T05:44:44.242Z,7.30
2023-04-18T05:47:13.430Z,7.30
2023-04-18T05:49:41.379Z,7.30
2023-04-18T05:52:09.335Z,7.30
2023-04-18T05:54:37.336Z,7.20
2023-04-18T05:57:05.324Z,7.10
2023-04-18T05:59:33.607Z,7.00
2023-04-18T06:02:03.021Z,7.00
2023-04-18T06:04:31.300Z,7.10
2023-04-18T06:06:59.462Z,7.20
2023-04-18T06:09:27.514Z,7.40
2023-04-18T06:11:55.700Z,7.60
2023-04-18T06:14:23.655Z,7.70
2023-04-18T06:16:51.743Z,7.90
2023-04-18T06:19:21.130Z,8.00
2023-04-18T06:21:50.018Z,7.90
2023-04-18T06:24:18.194Z,7.90
2023-04-18T06:26:47.278Z,7.90
2023-04-18T06:29:18.027Z,7.90
2023-04-18T06:31:48.396Z,8.00
2023-04-18T06:34:16.554Z,8.00
2023-04-18T06:36:46.084Z,8.00
2023-04-18T06:39:14.077Z,7.90
2023-04-18T06:41:42.077Z,7.90
2023-04-18T06:44:10.416Z,8.00
2023-04-18T06:46:38.395Z,8.00
2023-04-18T06:49:06.765Z,7.90
2023-04-18T06:51:34.805Z,7.90
2023-04-18T06:54:06.184Z,7.90
2023-04-18T06:56:36.386Z,8.10
2023-04-18T06:59:04.698Z,8.30
2023-04-18T07:01:34.468Z,8.50
2023-04-18T07:04:02.771Z,8.60
2023-04-18T07:06:31.155Z,8.80
2023-04-18T07:09:00.899Z,8.90
2023-04-18T07:11:30.294Z,9.00
2023-04-18T07:13:58.671Z,9.20
2023-04-18T07:16:26.725Z,9.30
2023-04-18T07:18:54.743Z,9.30
2023-04-18T07:21:24.019Z,9.40
2023-04-18T07:23:52.091Z,9.50
2023-04-18T07:26:20.916Z,9.50
2023-04-18T07:28:50.769Z,9.80
2023-04-18T07:31:19.519Z,9.80
2023-04-18T07:33:47.597Z,10.10
2023-04-18T07:36:15.662Z,10.30
2023-04-18T07:38:44.747Z,10.40
2023-04-18T07:41:12.768Z,10.40
2023-04-18T07:43:40.777Z,10.30
2023-04-18T07:46:10.451Z,10.30
2023-04-18T07:48:38.552Z,10.40
2023-04-18T07:51:06.891Z,10.50
2023-04-18T07:53:35.038Z,10.50
2023-04-18T07:56:03.111Z,10.40
2023-04-18T07:58:31.094Z,10.50
2023-04-18T08:00:59.088Z,10.50
2023-04-18T08:03:29.934Z,10.60
2023-04-18T08:05:58.151Z,10.50
2023-04-18T08:08:26.141Z,10.40
2023-04-18T08:10:54.146Z,10.60
2023-04-18T08:13:22.663Z,10.60
2023-04-18T08:15:51.191Z,10.30
2023-04-18T08:18:19.902Z,10.40
2023-04-18T08:20:49.402Z,10.60
2023-04-18T08:23:17.505Z,10.70
2023-04-18T08:25:45.777Z,10.80
2023-04-18T08:28:14.772Z,10.90
2023-04-18T08:30:43.980Z,10.70
2023-04-18T08:33:11.989Z,10.60
2023-04-18T08:35:40.012Z,10.60
2023-04-18T08:38:13.172Z,10.40
2023-04-18T08:40:41.416Z,10.60
2023-04-18T08:43:12.308Z,10.50
2023-04-18T08:45:40.751Z,10.90
2023-04-18T08:48:13.112Z,11.00
2023-04-18T08:50:41.359Z,11.10
2023-04-18T08:53:11.445Z,11.20
2023-04-18T08:55:40.498Z,11.50
2023-04-18T08:58:08.558Z,11.80
2023-04-18T09:00:36.613Z,11.70
2023-04-18T09:03:05.475Z,11.60
2023-04-18T09:05:33.690Z,11.50
2023-04-18T09:08:26.141Z,11.50
2023-04-18T09:10:54.121Z,11.30
2023-04-18T09:13:40.577Z,11.10
2023-04-18T09:16:08.598Z,11.10
2023-04-18T09:18:36.632Z,10.90
2023-04-18T09:21:19.651Z,10.90
2023-04-18T09:23:50.791Z,10.80
2023-04-18T09:26:33.876Z,10.90
2023-04-18T09:29:03.249Z,11.20
2023-04-18T09:31:31.400Z,11.40
2023-04-18T09:34:00.886Z,11.50
2023-04-18T09:36:29.025Z,11.30
2023-04-18T09:38:58.506Z,11.40
2023-04-18T09:41:27.047Z,11.60
2023-04-18T09:44:15.009Z,11.70
2023-04-18T09:46:46.032Z,11.70
2023-04-18T09:49:15.415Z,11.90
2023-04-18T09:51:44.788Z,12.00
2023-04-18T09:54:16.654Z,12.30
2023-04-18T09:56:45.575Z,12.50
2023-04-18T09:59:14.109Z,12.30
2023-04-18T10:01:44.957Z,12.00
2023-04-18T10:04:14.036Z,11.90
2023-04-18T10:06:43.671Z,12.00
2023-04-18T10:09:13.511Z,12.10
2023-04-18T10:11:41.766Z,12.30
2023-04-18T10:14:13.136Z,12.40
2023-04-18T10:16:43.088Z,12.70
2023-04-18T10:19:25.113Z,12.90
2023-04-18T10:21:57.191Z,12.50
2023-04-18T10:24:49.611Z,12.60
2023-04-18T10:27:18.648Z,12.70
2023-04-18T10:29:51.400Z,12.50
2023-04-18T10:32:20.516Z,12.60
2023-04-18T10:34:49.716Z,12.50
2023-04-18T10:37:18.985Z,12.50
2023-04-18T10:39:58.991Z,12.50
2023-04-18T10:42:59.962Z,12.30
2023-04-18T10:45:32.041Z,12.20
2023-04-18T10:48:25.740Z,12.20
2023-04-18T10:51:17.399Z,12.20
2023-04-18T10:53:51.076Z,12.00
2023-04-18T10:56:20.805Z,11.90
2023-04-18T10:58:52.213Z,11.90
2023-04-18T11:01:31.772Z,11.90
2023-04-18T11:04:01.582Z,11.80
2023-04-18T11:06:31.251Z,11.90
2023-04-18T11:09:11.655Z,12.00
2023-04-18T11:11:41.932Z,11.80
2023-04-18T11:14:10.096Z,11.80
2023-04-18T11:16:38.319Z,11.80
2023-04-18T11:19:23.339Z,11.80
2023-04-18T11:21:52.726Z,11.60
2023-04-18T11:24:24.712Z,11.70
2023-04-18T11:26:56.373Z,11.90
2023-04-18T11:29:24.531Z,12.00
2023-04-18T11:31:57.757Z,11.70
2023-04-18T11:34:31.432Z,11.70
2023-04-18T11:36:59.544Z,11.70
2023-04-18T11:39:27.668Z,11.60
2023-04-18T11:41:58.701Z,11.40
2023-04-18T11:44:27.459Z,11.40
2023-04-18T11:46:55.472Z,11.30
2023-04-18T11:49:30.456Z,11.30
2023-04-18T11:51:58.981Z,11.20
2023-04-18T11:54:41.118Z,11.20
2023-04-18T11:57:23.376Z,11.10
2023-04-18T11:59:53.056Z,11.30
2023-04-18T12:02:22.501Z,11.40
2023-04-18T12:04:53.081Z,11.60
2023-04-18T12:07:38.375Z,11.70
2023-04-18T12:10:09.288Z,11.50
2023-04-18T12:12:39.217Z,11.40
2023-04-18T12:15:10.465Z,11.30
2023-04-18T12:17:39.203Z,11.30
2023-04-18T12:20:09.969Z,11.30
2023-04-18T12:22:39.983Z,11.30
2023-04-18T12:25:19.861Z,11.40
2023-04-18T12:27:55.751Z,11.40
2023-04-18T12:30:25.495Z,11.50
2023-04-18T12:32:56.028Z,11.60
2023-04-18T12:35:24.798Z,11.70
2023-04-18T12:37:55.078Z,11.80
2023-04-18T12:40:24.215Z,12.00
2023-04-18T12:42:54.758Z,12.10
2023-04-18T12:45:24.295Z,12.30
2023-04-18T12:47:53.507Z,12.30
2023-04-18T12:50:23.775Z,12.40
2023-04-18T12:52:53.490Z,12.30
2023-04-18T12:55:21.801Z,12.30
2023-04-18T12:57:55.228Z,12.20
2023-04-18T13:00:24.420Z,12.10
2023-04-18T13:02:53.406Z,11.90
2023-04-18T13:05:23.605Z,11.90
2023-04-18T13:07:58.562Z,11.80
2023-04-18T13:10:30.553Z,11.60
2023-04-18T13:13:00.036Z,11.70
2023-04-18T13:15:28.132Z,11.70
2023-04-18T13:17:57.401Z,11.60
2023-04-18T13:20:25.535Z,11.60
2023-04-18T13:22:53.729Z,11.60
2023-04-18T13:25:21.930Z,11.60
2023-04-18T13:27:51.271Z,11.50
2023-04-18T13:30:21.177Z,11.40
2023-04-18T13:32:49.239Z,11.40
2023-04-18T13:35:17.518Z,11.40
2023-04-18T13:37:46.111Z,11.20
2023-04-18T13:40:14.604Z,11.10
2023-04-18T13:42:42.640Z,11.10
2023-04-18T13:45:11.374Z,11.00
2023-04-18T13:47:41.149Z,11.00
2023-04-18T13:50:10.960Z,10.80
2023-04-18T13:52:39.006Z,10.80
2023-04-18T13:55:08.236Z,10.60
2023-04-18T13:57:37.326Z,10.60
2023-04-18T14:00:07.488Z,10.60
2023-04-18T14:02:35.790Z,10.60
2023-04-18T14:05:06.336Z,10.50
2023-04-18T14:07:34.480Z,10.60
2023-04-18T14:10:02.508Z,10.60
2023-04-18T14:12:31.470Z,10.60
2023-04-18T14:14:59.481Z,10.50
2023-04-18T14:17:27.749Z,10.50
2023-04-18T14:19:55.996Z,10.50
2023-04-18T14:22:25.668Z,10.50
2023-04-18T14:24:54.920Z,10.50
2023-04-18T14:27:25.485Z,10.50
2023-04-18T14:29:53.520Z,10.50
2023-04-18T14:32:21.707Z,10.50
2023-04-18T14:34:49.784Z,10.50
2023-04-18T14:37:18.478Z,10.50
2023-04-18T14:39:48.524Z,10.50
2023-04-18T14:42:17.135Z,10.40
2023-04-18T14:44:45.283Z,10.40
2023-04-18T14:47:14.084Z,10.40
2023-04-18T14:49:42.467Z,10.40
2023-04-18T14:52:10.480Z,10.40
2023-04-18T14:54:38.892Z,10.40
2023-04-18T14:57:10.175Z,10.40
2023-04-18T14:59:38.287Z,10.40
2023-04-18T15:02:06.846Z,10.40
2023-04-18T15:04:36.922Z,10.30
2023-04-18T15:07:05.336Z,10.30
2023-04-18T15:09:37.451Z,10.30
2023-04-18T15:12:06.788Z,10.40
2023-04-18T15:14:36.693Z,10.40
2023-04-18T15:17:06.237Z,10.40
2023-04-18T15:19:34.490Z,10.50
2023-04-18T15:22:03.015Z,10.50
2023-04-18T15:24:31.629Z,10.60
2023-04-18T15:27:00.012Z,10.60
2023-04-18T15:29:28.061Z,10.70
2023-04-18T15:31:57.862Z,10.70
2023-04-18T15:34:26.396Z,10.80
2023-04-18T15:36:54.833Z,10.80
2023-04-18T15:39:24.038Z,10.90
2023-04-18T15:41:54.532Z,10.90
2023-04-18T15:44:22.616Z,10.80
2023-04-18T15:46:50.781Z,10.80
2023-04-18T15:49:21.414Z,10.80
2023-04-18T15:51:49.361Z,10.70
2023-04-18T15:54:17.392Z,10.70
2023-04-18T15:56:45.675Z,10.70
2023-04-18T15:59:13.736Z,10.60
2023-04-18T16:01:45.698Z,10.60
2023-04-18T16:04:14.517Z,10.60
2023-04-18T16:06:44.364Z,10.60
2023-04-18T16:09:12.480Z,10.50
2023-04-18T16:11:40.616Z,10.50
2023-04-18T16:14:08.784Z,10.50
2023-04-18T16:16:36.962Z,10.40
2023-04-18T16:19:05.621Z,10.30
2023-04-18T16:21:33.778Z,10.30
2023-04-18T16:24:03.245Z,10.30
2023-04-18T16:26:34.795Z,10.30
2023-04-18T16:29:02.859Z,10.30
2023-04-18T16:31:31.288Z,10.20
2023-04-18T16:33:59.671Z,10.20
2023-04-18T16:36:27.781Z,10.10
2023-04-18T16:38:56.968Z,10.10
2023-04-18T16:41:26.397Z,10.10
2023-04-18T16:43:54.741Z,10.10
2023-04-18T16:46:22.856Z,10.10
2023-04-18T16:48:52.402Z,10.10
2023-04-18T16:51:21.161Z,10.10
2023-04-18T16:53:49.278Z,10.10
2023-04-18T16:56:17.349Z,10.10
2023-04-18T16:58:46.767Z,10.10
2023-04-18T17:01:14.869Z,10.10
2023-04-18T17:03:43.092Z,10.00
2023-04-18T17:06:11.364Z,10.00
2023-04-18T17:08:39.470Z,10.00
2023-04-18T17:11:07.819Z,10.00
2023-04-18T17:13:36.246Z,10.00
2023-04-18T17:16:06.887Z,10.00
2023-04-18T17:18:34.940Z,10.00
2023-04-18T17:21:03.297Z,9.90
2023-04-18T17:23:32.955Z,9.90
2023-04-18T17:26:01.270Z,9.90
2023-04-18T17:28:29.524Z,9.80
2023-04-18T17:30:58.529Z,9.80
2023-04-18T17:33:28.043Z,9.80
2023-04-18T17:35:56.071Z,9.80
2023-04-18T17:38:24.201Z,9.70
2023-04-18T17:41:00.299Z,9.70
2023-04-18T17:43:29.595Z,9.70
2023-04-18T17:46:03.798Z,9.70
2023-04-18T17:48:33.863Z,9.70
2023-04-18T17:51:02.832Z,9.70
2023-04-18T17:53:32.419Z,9.70
2023-04-18T17:56:00.650Z,9.60
2023-04-18T17:58:29.541Z,9.60
2023-04-18T18:00:57.718Z,9.60
2023-04-18T18:03:26.631Z,9.60
2023-04-18T18:05:56.418Z,9.50
2023-04-18T18:08:25.754Z,9.50
2023-04-18T18:10:53.925Z,9.40
2023-04-18T18:13:21.915Z,9.40
2023-04-18T18:15:50.395Z,9.40
2023-04-18T18:18:18.424Z,9.40
2023-04-18T18:20:46.651Z,9.30
2023-04-18T18:23:16.120Z,9.30
2023-04-18T18:25:44.185Z,9.30
2023-04-18T18:28:12.586Z,9.30
2023-04-18T18:30:40.715Z,9.20
2023-04-18T18:33:08.836Z,9.20
2023-04-18T18:35:37.129Z,9.20
2023-04-18T18:38:05.204Z,9.20
2023-04-18T18:40:34.967Z,9.20
2023-04-18T18:43:02.962Z,9.20
2023-04-18T18:45:31.004Z,9.20
2023-04-18T18:47:59.121Z,9.20
2023-04-18T18:50:27.308Z,9.10
2023-04-18T18:52:55.828Z,9.10
2023-04-18T18:55:24.048Z,9.10
2023-04-18T18:57:53.733Z,9.00
2023-04-18T19:00:21.946Z,9.00
2023-04-18T19:02:50.156Z,9.00
2023-04-18T19:05:19.802Z,8.90
2023-04-18T19:07:48.310Z,8.90
2023-04-18T19:10:16.467Z,8.90
2023-04-18T19:12:44.684Z,8.90
2023-04-18T19:15:14.735Z,8.90
2023-04-18T19:17:43.540Z,8.90
2023-04-18T19:20:12.203Z,8.80
2023-04-18T19:22:40.479Z,8.80
2023-04-18T19:25:09.958Z,8.80
2023-04-18T19:27:38.067Z,8.70
2023-04-18T19:30:07.700Z,8.70
2023-04-18T19:32:37.271Z,8.70
2023-04-18T19:35:06.900Z,8.70
2023-04-18T19:37:34.968Z,8.60
2023-04-18T19:40:03.662Z,8.60
2023-04-18T19:42:32.293Z,8.60
2023-04-18T19:45:00.661Z,8.60
2023-04-18T19:47:32.201Z,8.60
2023-04-18T19:50:02.428Z,8.60
2023-04-18T19:52:30.527Z,8.50
2023-04-18T19:54:59.050Z,8.50
2023-04-18T19:57:28.877Z,8.50
2023-04-18T19:59:57.002Z,8.40
2023-04-18T20:02:25.288Z,8.40
2023-04-18T20:04:53.558Z,8.40
2023-04-18T20:07:25.511Z,8.40
2023-04-18T20:09:54.554Z,8.40
2023-04-18T20:12:23.333Z,8.30
2023-04-18T20:14:51.473Z,8.40
2023-04-18T20:17:19.988Z,8.30
2023-04-18T20:19:50.018Z,8.30
2023-04-18T20:22:18.234Z,8.30
2023-04-18T20:24:48.736Z,8.30
2023-04-18T20:27:20.352Z,8.30
2023-04-18T20:29:48.528Z,8.30
2023-04-18T20:32:17.005Z,8.30
2023-04-18T20:34:46.781Z,8.30
2023-04-18T20:37:18.689Z,8.30
2023-04-18T20:39:48.296Z,8.30
2023-04-18T20:42:16.368Z,8.30
2023-04-18T20:44:48.090Z,8.30
2023-04-18T20:47:16.144Z,8.20
2023-04-18T20:49:44.239Z,8.20
2023-04-18T20:52:14.360Z,8.10
2023-04-18T20:54:42.592Z,8.10
2023-04-18T20:57:12.346Z,8.10
2023-04-18T20:59:40.608Z,8.00
2023-04-18T21:02:09.478Z,8.00
2023-04-18T21:04:37.929Z,8.00
2023-04-18T21:07:06.859Z,8.00
2023-04-18T21:09:36.944Z,7.90
2023-04-18T21:12:05.302Z,7.90
2023-04-18T21:14:34.733Z,7.90
2023-04-18T21:17:04.422Z,7.90
2023-04-18T21:19:32.695Z,7.80
2023-04-18T21:22:01.225Z,7.80
2023-04-18T21:24:29.513Z,7.80
2023-04-18T21:26:57.889Z,7.80
2023-04-18T21:29:25.884Z,7.80
2023-04-18T21:31:55.313Z,7.80
2023-04-18T21:34:23.814Z,7.70
2023-04-18T21:36:52.662Z,7.70
2023-04-18T21:39:20.746Z,7.70
2023-04-18T21:41:48.735Z,7.80
2023-04-18T21:44:18.731Z,7.80
2023-04-18T21:46:47.171Z,7.80
2023-04-18T21:49:16.629Z,7.80
2023-04-18T21:51:44.845Z,7.90
2023-04-18T21:54:13.130Z,7.80
2023-04-18T21:56:41.247Z,7.80
2023-04-18T21:59:09.833Z,7.80
2023-04-18T22:01:38.366Z,7.80
2023-04-18T22:04:06.887Z,7.80
2023-04-18T22:06:36.350Z,7.80
2023-04-18T22:09:06.008Z,7.80
2023-04-18T22:11:34.870Z,7.90
2023-04-18T22:14:02.832Z,7.80
2023-04-18T22:16:30.979Z,7.90
2023-04-18T22:19:01.130Z,7.90
2023-04-18T22:21:29.076Z,7.90
2023-04-18T22:23:58.957Z,7.90
2023-04-18T22:26:26.976Z,7.90
2023-04-18T22:28:54.980Z,7.90
2023-04-18T22:31:23.060Z,7.90
2023-04-18T22:33:51.110Z,7.80
2023-04-18T22:36:19.544Z,7.80
2023-04-18T22:38:49.050Z,7.80
2023-04-18T22:41:18.418Z,7.90
2023-04-18T22:43:46.384Z,7.80
2023-04-18T22:46:14.421Z,7.80
2023-04-18T22:48:42.928Z,7.80
2023-04-18T22:51:10.994Z,7.80
2023-04-18T22:53:39.000Z,7.80
2023-04-18T22:56:07.614Z,7.70
2023-04-18T22:58:37.009Z,7.70
2023-04-18T23:01:05.211Z,7.70
2023-04-18T23:03:34.301Z,7.70
2023-04-18T23:06:02.456Z,7.70
2023-04-18T23:08:30.930Z,7.70
2023-04-18T23:10:59.027Z,7.70
2023-04-18T23:13:27.535Z,7.80
2023-04-18T23:15:56.900Z,7.70
2023-04-18T23:18:25.012Z,7.70
2023-04-18T23:20:52.962Z,7.80
2023-04-18T23:23:20.960Z,7.80
2023-04-18T23:25:49.711Z,7.70
2023-04-18T23:28:18.042Z,7.70
2023-04-18T23:30:47.197Z,7.80
2023-04-18T23:33:16.557Z,7.70
2023-04-18T23:35:44.587Z,7.70
2023-04-18T23:38:12.865Z,7.70
2023-04-18T23:40:40.838Z,7.70
2023-04-18T23:43:08.810Z,7.80
2023-04-18T23:45:37.214Z,7.80
2023-04-18T23:48:05.325Z,7.70
2023-04-18T23:50:35.545Z,7.80
2023-04-18T23:53:03.779Z,7.80
2023-04-18T23:55:31.706Z,7.80
2023-04-18T23:57:59.655Z,7.80
